createdAt,value
2018-11-05T00:00:39.320Z,78.44
2018-11-05T00:03:10.548Z,78.45
2018-11-05T00:05:41.795Z,78.54
2018-11-05T00:08:12.903Z,78.48
2018-11-05T00:10:44.122Z,78.55
2018-11-05T00:13:15.248Z,78.48
2018-11-05T00:15:49.539Z,78.48
2018-11-05T00:18:20.962Z,78.50
2018-11-05T00:20:52.199Z,78.74
2018-11-05T00:23:23.512Z,79.03
2018-11-05T00:25:54.763Z,79.00
2018-11-05T00:28:25.925Z,78.88
2018-11-05T00:31:00.240Z,78.92
2018-11-05T00:33:31.448Z,78.79
2018-11-05T00:36:02.646Z,78.80
2018-11-05T00:38:34.147Z,78.79
2018-11-05T00:41:05.617Z,78.42
2018-11-05T00:43:37.175Z,78.37
2018-11-05T00:46:08.936Z,78.33
2018-11-05T00:48:40.119Z,78.71
2018-11-05T00:51:14.043Z,79.06
2018-11-05T00:53:45.484Z,79.02
2018-11-05T00:56:16.646Z,78.84
2018-11-05T00:58:47.830Z,78.85
2018-11-05T01:01:19.408Z,78.85
2018-11-05T01:03:50.941Z,78.92
2018-11-05T01:06:22.110Z,79.12
2018-11-05T01:08:53.241Z,79.22
2018-11-05T01:11:24.703Z,79.08
2018-11-05T01:13:58.012Z,79.32
2018-11-05T01:16:29.387Z,79.57
2018-11-05T01:19:06.680Z,79.71
2018-11-05T01:21:37.972Z,79.73
2018-11-05T01:24:09.276Z,79.73
2018-11-05T01:26:40.566Z,79.31
2018-11-05T01:29:12.074Z,79.10
2018-11-05T01:31:43.182Z,78.84
2018-11-05T01:34:14.475Z,78.92
2018-11-05T01:36:45.616Z,79.00
2018-11-05T01:39:16.851Z,79.05
2018-11-05T01:41:48.323Z,79.23
2018-11-05T01:44:21.973Z,79.37
2018-11-05T01:46:53.678Z,79.70
2018-11-05T01:49:25.246Z,80.24
2018-11-05T01:51:56.537Z,80.41
2018-11-05T01:54:28.524Z,80.46
2018-11-05T01:57:00.002Z,80.17
2018-11-05T01:59:31.206Z,80.11
2018-11-05T02:02:02.433Z,80.13
2018-11-05T02:04:33.939Z,79.95
2018-11-05T02:07:05.208Z,79.65
2018-11-05T02:09:36.303Z,79.61
2018-11-05T02:12:10.761Z,79.64
2018-11-05T02:14:41.905Z,79.74
2018-11-05T02:17:13.764Z,79.57
2018-11-05T02:19:45.295Z,79.48
2018-11-05T02:22:16.748Z,79.83
2018-11-05T02:24:47.977Z,80.36
2018-11-05T02:27:19.186Z,80.74
2018-11-05T02:29:50.564Z,81.04
2018-11-05T02:32:21.821Z,81.21
2018-11-05T02:34:53.171Z,81.28
2018-11-05T02:37:24.344Z,81.34
2018-11-05T02:39:55.575Z,81.20
2018-11-05T02:42:29.096Z,81.07
2018-11-05T02:45:00.316Z,80.87
2018-11-05T02:47:31.516Z,80.78
2018-11-05T02:50:02.861Z,81.02
2018-11-05T02:52:34.028Z,81.26
2018-11-05T02:55:05.465Z,81.75
2018-11-05T02:57:36.994Z,82.09
2018-11-05T03:00:20.269Z,81.98
2018-11-05T03:02:51.386Z,81.80
2018-11-05T03:05:22.657Z,81.94
2018-11-05T03:07:53.888Z,82.22
2018-11-05T03:10:25.097Z,82.32
2018-11-05T03:12:56.325Z,82.21
2018-11-05T03:15:27.818Z,82.13
2018-11-05T03:17:59.066Z,81.94
2018-11-05T03:20:31.229Z,81.66
2018-11-05T03:23:02.404Z,81.38
2018-11-05T03:25:33.580Z,81.12
2018-11-05T03:28:05.081Z,80.96
2018-11-05T03:30:36.107Z,80.95
2018-11-05T03:33:07.370Z,81.13
2018-11-05T03:35:38.644Z,81.23
2018-11-05T03:38:09.781Z,81.27
2018-11-05T03:40:40.933Z,81.31
2018-11-05T03:43:12.074Z,81.45
2018-11-05T03:45:43.302Z,81.48
2018-11-05T03:48:16.093Z,81.39
2018-11-05T03:50:45.672Z,81.30
2018-11-05T03:53:16.880Z,81.49
2018-11-05T03:55:48.186Z,81.58
2018-11-05T03:58:19.566Z,81.53
2018-11-05T04:00:50.726Z,81.42
2018-11-05T04:03:22.018Z,81.39
2018-11-05T04:05:53.253Z,81.39
2018-11-05T04:08:24.469Z,81.57
2018-11-05T04:10:55.740Z,81.70
2018-11-05T04:13:26.960Z,81.71
2018-11-05T04:15:58.221Z,81.66
2018-11-05T04:18:29.454Z,81.87
2018-11-05T04:21:00.568Z,82.26
2018-11-05T04:23:32.067Z,82.23
2018-11-05T04:26:03.247Z,82.12
2018-11-05T04:28:34.429Z,81.87
2018-11-05T04:31:08.491Z,81.67
2018-11-05T04:33:40.037Z,81.54
2018-11-05T04:36:11.607Z,81.37
2018-11-05T04:38:43.175Z,81.33
2018-11-05T04:41:14.286Z,81.66
2018-11-05T04:46:16.906Z,81.88
2018-11-05T04:48:48.288Z,81.76
2018-11-05T04:51:19.550Z,81.57
2018-11-05T04:53:50.655Z,81.61
2018-11-05T04:56:22.192Z,81.70
2018-11-05T04:58:53.463Z,81.95
2018-11-05T05:01:24.669Z,81.99
2018-11-05T05:03:55.845Z,81.95
2018-11-05T05:06:27.505Z,81.99
2018-11-05T05:08:58.670Z,82.02
2018-11-05T05:11:30.198Z,82.07
2018-11-05T05:14:01.348Z,81.95
2018-11-05T05:16:32.617Z,81.89
2018-11-05T05:19:04.203Z,81.70
2018-11-05T05:21:35.388Z,81.87
2018-11-05T05:24:06.632Z,81.91
2018-11-05T05:26:38.037Z,81.94
2018-11-05T05:29:09.620Z,81.94
2018-11-05T05:31:40.916Z,81.98
2018-11-05T05:34:12.094Z,81.96
2018-11-05T05:36:43.647Z,81.95
2018-11-05T05:39:15.093Z,81.86
2018-11-05T05:41:46.581Z,81.71
2018-11-05T05:44:20.097Z,81.55
2018-11-05T05:46:51.294Z,81.54
2018-11-05T05:49:22.464Z,81.61
2018-11-05T05:51:53.745Z,81.58
2018-11-05T05:54:24.938Z,81.43
2018-11-05T05:56:56.216Z,81.50
2018-11-05T05:59:28.500Z,81.48
2018-11-05T06:01:59.839Z,81.54
2018-11-05T06:04:31.243Z,81.58
2018-11-05T06:07:02.402Z,81.63
2018-11-05T06:09:33.851Z,81.62
2018-11-05T06:12:05.146Z,81.72
2018-11-05T06:14:36.327Z,81.85
2018-11-05T06:17:07.743Z,81.82
2018-11-05T06:19:39.049Z,81.71
2018-11-05T06:22:10.488Z,81.62
2018-11-05T06:24:41.776Z,81.56
2018-11-05T06:27:13.023Z,81.43
2018-11-05T06:29:49.980Z,81.37
2018-11-05T06:32:21.298Z,81.34
2018-11-05T06:34:52.609Z,81.46
2018-11-05T06:37:23.863Z,81.42
2018-11-05T06:39:55.029Z,81.36
2018-11-05T06:42:26.315Z,81.36
2018-11-05T06:44:57.741Z,81.35
2018-11-05T06:47:28.948Z,81.25
2018-11-05T06:50:03.414Z,81.27
2018-11-05T06:52:34.537Z,81.22
2018-11-05T06:55:06.081Z,81.28
2018-11-05T06:57:37.316Z,81.26
2018-11-05T07:00:24.177Z,81.24
2018-11-05T07:02:55.624Z,81.21
2018-11-05T07:05:27.309Z,81.41
2018-11-05T07:07:59.334Z,81.47
2018-11-05T07:10:30.667Z,81.39
2018-11-05T07:13:02.334Z,81.39
2018-11-05T07:15:33.646Z,81.55
2018-11-05T07:18:05.121Z,81.73
2018-11-05T07:20:36.427Z,81.91
2018-11-05T07:23:07.851Z,82.74
2018-11-05T07:25:39.017Z,82.73
2018-11-05T07:28:10.414Z,82.69
2018-11-05T07:30:42.113Z,82.66
2018-11-05T07:33:13.318Z,82.48
2018-11-05T07:35:44.536Z,82.57
2018-11-05T07:38:15.812Z,82.86
2018-11-05T07:40:47.593Z,83.50
2018-11-05T07:43:21.056Z,83.50
2018-11-05T07:45:53.459Z,83.40
2018-11-05T07:48:23.457Z,83.41
2018-11-05T07:50:54.911Z,83.32
2018-11-05T07:53:25.937Z,83.13
2018-11-05T07:55:57.971Z,82.86
2018-11-05T07:58:29.518Z,82.94
2018-11-05T08:01:01.020Z,82.98
2018-11-05T08:03:32.331Z,82.85
2018-11-05T08:06:04.258Z,82.60
2018-11-05T08:08:35.545Z,82.81
2018-11-05T08:11:06.994Z,82.91
2018-11-05T08:13:38.050Z,82.92
2018-11-05T08:16:09.408Z,83.17
2018-11-05T08:18:43.170Z,83.69
2018-11-05T08:21:14.551Z,83.48
2018-11-05T08:23:49.553Z,83.46
2018-11-05T08:26:20.772Z,83.60
2018-11-05T08:28:52.013Z,83.46
2018-11-05T08:31:23.286Z,83.30
2018-11-05T08:33:54.625Z,82.92
2018-11-05T08:36:25.791Z,82.67
2018-11-05T08:38:57.287Z,82.32
2018-11-05T08:41:28.744Z,82.06
2018-11-05T08:43:59.833Z,81.78
2018-11-05T08:46:31.203Z,81.63
2018-11-05T08:49:02.548Z,81.71
2018-11-05T08:51:34.156Z,81.68
2018-11-05T08:54:05.398Z,81.55
2018-11-05T08:56:36.574Z,81.34
2018-11-05T08:59:08.132Z,81.07
2018-11-05T09:01:40.381Z,80.81
2018-11-05T09:04:15.050Z,80.76
2018-11-05T09:06:46.264Z,80.69
2018-11-05T09:09:18.066Z,80.57
2018-11-05T09:11:49.688Z,80.28
2018-11-05T09:14:20.940Z,80.22
2018-11-05T09:16:52.434Z,80.17
2018-11-05T09:19:23.657Z,80.26
2018-11-05T09:21:54.793Z,80.07
2018-11-05T09:24:26.428Z,79.84
2018-11-05T09:26:58.149Z,79.72
2018-11-05T09:29:29.556Z,79.63
2018-11-05T09:32:00.997Z,79.54
2018-11-05T09:34:32.351Z,79.47
2018-11-05T09:37:03.661Z,79.28
2018-11-05T09:39:35.739Z,79.05
2018-11-05T09:42:07.246Z,78.93
2018-11-05T09:44:38.380Z,78.76
2018-11-05T09:47:09.668Z,78.41
2018-11-05T09:49:41.048Z,78.17
2018-11-05T09:52:12.543Z,77.89
2018-11-05T09:54:43.849Z,77.58
2018-11-05T09:57:15.745Z,77.40
2018-11-05T09:59:47.120Z,77.20
2018-11-05T10:02:18.523Z,77.07
2018-11-05T10:04:50.359Z,76.87
2018-11-05T10:07:21.405Z,76.59
2018-11-05T10:09:55.254Z,76.24
2018-11-05T10:12:26.816Z,75.98
2018-11-05T10:14:58.172Z,75.71
2018-11-05T10:17:29.682Z,75.63
2018-11-05T10:20:01.063Z,75.61
2018-11-05T10:22:32.460Z,75.55
2018-11-05T10:25:03.973Z,75.25
2018-11-05T10:27:35.019Z,75.12
2018-11-05T10:30:07.923Z,75.11
2018-11-05T10:32:39.531Z,74.95
2018-11-05T10:35:10.911Z,74.80
2018-11-05T10:37:42.305Z,74.85
2018-11-05T10:40:23.082Z,74.81
2018-11-05T10:42:54.506Z,74.72
2018-11-05T10:45:25.749Z,74.69
2018-11-05T10:47:57.057Z,73.81
2018-11-05T10:50:28.758Z,73.67
2018-11-05T10:52:59.795Z,73.81
2018-11-05T10:55:31.015Z,73.79
2018-11-05T10:58:02.704Z,73.72
2018-11-05T11:00:50.871Z,73.48
2018-11-05T11:03:22.161Z,73.28
2018-11-05T11:05:53.337Z,72.83
2018-11-05T11:08:24.631Z,72.72
2018-11-05T11:10:55.947Z,72.62
2018-11-05T11:13:27.776Z,72.61
2018-11-05T11:15:59.066Z,72.70
2018-11-05T11:18:30.641Z,72.70
2018-11-05T11:21:01.916Z,72.67
2018-11-05T11:23:33.206Z,72.41
2018-11-05T11:26:04.505Z,71.65
2018-11-05T11:28:35.816Z,71.65
2018-11-05T11:31:08.001Z,71.79
2018-11-05T11:33:39.565Z,72.04
2018-11-05T11:36:10.924Z,71.98
2018-11-05T11:38:42.378Z,72.12
2018-11-05T11:41:13.768Z,71.97
2018-11-05T11:43:45.733Z,71.80
2018-11-05T11:46:16.906Z,71.48
2018-11-05T11:48:48.620Z,70.98
2018-11-05T11:51:19.825Z,71.00
2018-11-05T11:53:51.600Z,71.35
2018-11-05T11:56:23.477Z,71.65
2018-11-05T11:58:54.838Z,71.74
2018-11-05T12:01:26.795Z,71.77
2018-11-05T12:03:58.742Z,71.72
2018-11-05T12:06:30.004Z,71.26
2018-11-05T12:09:01.411Z,71.20
2018-11-05T12:11:32.861Z,71.05
2018-11-05T12:14:04.156Z,70.93
2018-11-05T12:16:35.663Z,70.42
2018-11-05T12:19:09.146Z,70.25
2018-11-05T12:21:41.021Z,70.45
2018-11-05T12:24:12.335Z,70.67
2018-11-05T12:26:43.560Z,70.74
2018-11-05T12:29:14.746Z,70.94
2018-11-05T12:31:46.127Z,70.72
2018-11-05T12:34:17.166Z,70.69
2018-11-05T12:36:48.651Z,70.54
2018-11-05T12:39:19.725Z,70.57
2018-11-05T12:41:50.985Z,70.65
2018-11-05T12:44:22.013Z,70.77
2018-11-05T12:46:53.379Z,70.89
2018-11-05T12:49:29.873Z,70.40
2018-11-05T12:52:03.825Z,70.29
2018-11-05T12:54:34.935Z,70.13
2018-11-05T12:57:06.675Z,69.98
2018-11-05T12:59:37.971Z,69.94
2018-11-05T13:02:09.279Z,69.89
2018-11-05T13:04:40.681Z,69.95
2018-11-05T13:07:52.186Z,69.91
2018-11-05T13:10:23.415Z,69.52
2018-11-05T13:12:54.683Z,69.50
2018-11-05T13:15:26.002Z,69.61
2018-11-05T13:17:59.504Z,69.67
2018-11-05T13:20:30.751Z,69.67
2018-11-05T13:23:04.535Z,69.79
2018-11-05T13:25:35.714Z,70.00
2018-11-05T13:28:06.835Z,70.14
2018-11-05T13:30:38.192Z,69.99
2018-11-05T13:33:09.438Z,69.97
2018-11-05T13:35:40.746Z,69.98
2018-11-05T13:38:12.619Z,69.81
2018-11-05T13:40:43.431Z,69.82
2018-11-05T13:43:14.939Z,69.91
2018-11-05T13:45:46.399Z,69.89
2018-11-05T13:48:18.156Z,70.12
2018-11-05T13:50:48.938Z,70.08
2018-11-05T13:53:23.043Z,70.08
2018-11-05T13:55:58.047Z,70.06
2018-11-05T13:58:28.412Z,70.05
2018-11-05T14:01:02.625Z,70.03
2018-11-05T14:03:34.168Z,70.08
2018-11-05T14:06:05.425Z,70.17
2018-11-05T14:08:41.845Z,70.03
2018-11-05T14:11:13.040Z,70.04
2018-11-05T14:13:44.128Z,70.00
2018-11-05T14:16:15.311Z,70.11
2018-11-05T14:18:47.517Z,70.33
2018-11-05T14:21:17.624Z,70.19
2018-11-05T14:23:51.036Z,70.27
2018-11-05T14:26:22.247Z,70.28
2018-11-05T14:28:54.132Z,70.38
2018-11-05T14:31:27.454Z,70.48
2018-11-05T14:33:58.584Z,70.67
2018-11-05T14:36:29.683Z,70.36
2018-11-05T14:39:00.761Z,70.31
2018-11-05T14:41:34.242Z,70.21
2018-11-05T14:44:05.480Z,69.99
2018-11-05T14:46:36.606Z,70.13
2018-11-05T14:49:08.001Z,70.31
2018-11-05T14:51:39.833Z,70.46
2018-11-05T14:54:14.144Z,70.55
2018-11-05T14:56:48.073Z,70.61
2018-11-05T14:59:19.295Z,70.71
2018-11-05T15:02:08.934Z,70.81
2018-11-05T15:04:42.481Z,70.85
2018-11-05T15:07:13.942Z,70.88
2018-11-05T15:09:54.846Z,70.89
2018-11-05T15:12:26.063Z,70.92
2018-11-05T15:14:57.214Z,70.88
2018-11-05T15:17:29.571Z,70.89
2018-11-05T15:20:01.157Z,70.84
2018-11-05T15:22:31.791Z,70.70
2018-11-05T15:25:02.981Z,70.65
2018-11-05T15:27:36.266Z,70.62
2018-11-05T15:30:27.719Z,70.63
2018-11-05T15:32:59.354Z,70.75
2018-11-05T15:35:30.722Z,70.83
2018-11-05T15:38:01.905Z,70.93
2018-11-05T15:40:36.057Z,71.10
2018-11-05T15:43:07.715Z,71.24
2018-11-05T15:45:39.844Z,71.42
2018-11-05T15:48:11.220Z,71.85
2018-11-05T15:50:42.608Z,72.01
2018-11-05T15:53:14.284Z,72.07
2018-11-05T15:55:47.767Z,72.03
2018-11-05T15:58:22.167Z,71.94
2018-11-05T16:00:53.740Z,71.89
2018-11-05T16:03:26.310Z,71.88
2018-11-05T16:05:56.482Z,72.00
2018-11-05T16:08:28.182Z,72.44
2018-11-05T16:10:59.259Z,72.84
2018-11-05T16:13:30.524Z,72.86
2018-11-05T16:16:01.675Z,72.89
2018-11-05T16:18:32.892Z,72.97
2018-11-05T16:21:05.790Z,73.17
2018-11-05T16:23:39.960Z,73.23
2018-11-05T16:26:11.943Z,73.51
2018-11-05T16:28:43.181Z,73.53
2018-11-05T16:31:17.375Z,73.42
2018-11-05T16:33:49.191Z,73.35
2018-11-05T16:36:20.941Z,73.40
2018-11-05T16:39:00.212Z,73.54
2018-11-05T16:41:31.376Z,73.75
2018-11-05T16:44:04.628Z,73.85
2018-11-05T16:46:38.756Z,74.10
2018-11-05T16:49:09.934Z,74.57
2018-11-05T16:51:41.066Z,74.67
2018-11-05T16:54:12.312Z,74.58
2018-11-05T16:56:45.157Z,74.58
2018-11-05T16:59:32.071Z,74.71
2018-11-05T17:02:03.863Z,75.20
2018-11-05T17:04:54.105Z,75.65
2018-11-05T17:07:28.305Z,75.75
2018-11-05T17:10:02.291Z,75.92
2018-11-05T17:12:33.604Z,75.92
2018-11-05T17:15:04.917Z,75.74
2018-11-05T17:17:36.101Z,75.62
2018-11-05T17:20:10.086Z,75.55
2018-11-05T17:22:42.180Z,75.36
2018-11-05T17:25:14.142Z,75.32
2018-11-05T17:27:51.220Z,75.27
2018-11-05T17:30:26.254Z,75.13
2018-11-05T17:32:59.182Z,75.05
2018-11-05T17:35:32.716Z,75.27
2018-11-05T17:38:04.003Z,75.57
2018-11-05T17:40:37.977Z,75.77
2018-11-05T17:43:09.677Z,76.06
2018-11-05T17:45:41.027Z,76.01
2018-11-05T17:48:12.218Z,75.85
2018-11-05T17:50:57.130Z,75.86
2018-11-05T17:53:28.122Z,75.91
2018-11-05T17:56:01.025Z,75.86
2018-11-05T17:58:32.322Z,75.74
2018-11-05T18:01:03.444Z,75.86
2018-11-05T18:03:35.999Z,76.25
2018-11-05T18:06:08.244Z,76.38
2018-11-05T18:08:40.114Z,76.35
2018-11-05T18:11:11.322Z,76.38
2018-11-05T18:13:42.590Z,76.40
2018-11-05T18:16:13.715Z,76.62
2018-11-05T18:18:50.503Z,76.44
2018-11-05T18:21:24.488Z,76.21
2018-11-05T18:23:58.469Z,76.06
2018-11-05T18:26:31.344Z,76.08
2018-11-05T18:29:04.274Z,76.12
2018-11-05T18:31:36.571Z,76.32
2018-11-05T18:34:08.081Z,76.26
2018-11-05T18:36:39.657Z,76.22
2018-11-05T18:39:14.123Z,76.52
2018-11-05T18:41:47.777Z,76.69
2018-11-05T18:44:19.024Z,76.88
2018-11-05T18:46:50.494Z,76.98
2018-11-05T18:49:23.979Z,76.99
2018-11-05T18:52:18.900Z,76.90
2018-11-05T18:54:50.122Z,77.03
2018-11-05T18:57:21.622Z,77.13
2018-11-05T18:59:56.350Z,77.22
2018-11-05T19:02:36.488Z,77.11
2018-11-05T19:05:09.567Z,77.01
2018-11-05T19:07:40.784Z,77.02
2018-11-05T19:10:12.345Z,77.18
2018-11-05T19:12:47.641Z,77.46
2018-11-05T19:15:35.850Z,77.46
2018-11-05T19:18:10.514Z,77.30
2018-11-05T19:20:46.215Z,77.42
2018-11-05T19:23:23.790Z,77.54
2018-11-05T19:25:56.812Z,77.50
2018-11-05T19:28:35.975Z,77.38
2018-11-05T19:31:08.859Z,77.72
2018-11-05T19:33:44.656Z,77.81
2018-11-05T19:36:18.406Z,77.96
2018-11-05T19:38:57.104Z,77.93
2018-11-05T19:41:32.786Z,78.18
2018-11-05T19:44:07.094Z,78.31
2018-11-05T19:46:42.941Z,78.20
2018-11-05T19:49:14.393Z,78.06
2018-11-05T19:51:54.773Z,77.98
2018-11-05T19:54:37.377Z,78.04
2018-11-05T19:57:13.508Z,78.25
2018-11-05T19:59:49.301Z,78.21
2018-11-05T20:02:30.673Z,78.12
2018-11-05T20:05:04.278Z,78.17
2018-11-05T20:07:37.819Z,78.34
2018-11-05T20:10:14.609Z,78.60
2018-11-05T20:12:53.047Z,78.75
2018-11-05T20:15:29.675Z,78.86
2018-11-05T20:18:06.345Z,78.90
2018-11-05T20:20:37.900Z,78.71
2018-11-05T20:23:11.355Z,78.57
2018-11-05T20:25:45.316Z,78.46
2018-11-05T20:28:20.779Z,78.43
2018-11-05T20:30:55.790Z,78.42
2018-11-05T20:33:28.884Z,78.52
2018-11-05T20:36:03.245Z,78.67
2018-11-05T20:38:36.955Z,78.82
2018-11-05T20:41:12.924Z,78.85
2018-11-05T20:43:49.241Z,78.79
2018-11-05T20:46:23.118Z,78.72
2018-11-05T20:48:57.622Z,78.78
2018-11-05T20:51:32.138Z,78.86
2018-11-05T20:54:05.669Z,78.87
2018-11-05T20:56:39.653Z,78.83
2018-11-05T20:59:13.256Z,78.75
2018-11-05T21:01:47.747Z,78.89
2018-11-05T21:04:21.084Z,78.98
2018-11-05T21:06:54.456Z,78.89
2018-11-05T21:09:28.097Z,78.77
2018-11-05T21:12:03.043Z,78.75
2018-11-05T21:14:37.382Z,79.11
2018-11-05T21:17:10.798Z,79.26
2018-11-05T21:19:48.087Z,79.26
2018-11-05T21:22:21.510Z,79.15
2018-11-05T21:24:54.662Z,79.23
2018-11-05T21:27:28.421Z,79.12
2018-11-05T21:30:02.072Z,78.97
2018-11-05T21:32:37.686Z,79.06
2018-11-05T21:35:29.449Z,79.41
2018-11-05T21:38:05.062Z,79.78
2018-11-05T21:40:38.643Z,79.88
2018-11-05T21:43:12.564Z,79.92
2018-11-05T21:45:45.950Z,80.19
2018-11-05T21:48:35.566Z,80.12
2018-11-05T21:51:08.443Z,79.98
2018-11-05T21:53:41.687Z,79.82
2018-11-05T21:56:13.862Z,79.76
2018-11-05T21:58:46.233Z,79.72
2018-11-05T22:01:19.691Z,79.83
2018-11-05T22:03:54.265Z,79.86
2018-11-05T22:06:28.265Z,79.75
2018-11-05T22:09:03.622Z,79.65
2018-11-05T22:11:37.088Z,79.45
2018-11-05T22:14:10.624Z,79.26
2018-11-05T22:16:50.027Z,79.24
2018-11-05T22:19:23.250Z,79.22
2018-11-05T22:21:57.617Z,79.12
2018-11-05T22:24:38.522Z,79.44
2018-11-05T22:27:11.872Z,79.85
2018-11-05T22:29:45.843Z,79.99
2018-11-05T22:32:21.245Z,80.06
2018-11-05T22:35:02.859Z,79.92
2018-11-05T22:37:37.397Z,79.79
2018-11-05T22:40:17.205Z,79.75
2018-11-05T22:44:10.857Z,79.42
2018-11-05T22:46:44.561Z,79.85
2018-11-05T22:49:18.247Z,80.20
2018-11-05T22:51:51.718Z,80.37
2018-11-05T22:54:25.683Z,80.22
2018-11-05T22:56:59.074Z,80.28
2018-11-05T22:59:32.335Z,80.56
2018-11-05T23:02:06.393Z,80.71
2018-11-05T23:04:40.278Z,80.83
2018-11-05T23:07:13.329Z,80.66
2018-11-05T23:09:47.390Z,80.41
2018-11-05T23:12:22.231Z,80.24
2018-11-05T23:14:57.354Z,80.16
2018-11-05T23:17:32.783Z,80.00
2018-11-05T23:20:07.003Z,79.92
2018-11-05T23:22:41.795Z,80.06
2018-11-05T23:25:16.148Z,80.05
2018-11-05T23:27:50.635Z,80.02
2018-11-05T23:30:24.238Z,80.25
2018-11-05T23:32:59.370Z,80.43
2018-11-05T23:35:33.018Z,80.57
2018-11-05T23:38:08.393Z,80.57
2018-11-05T23:40:41.276Z,80.63
2018-11-05T23:43:15.621Z,80.65
2018-11-05T23:45:49.484Z,80.56
2018-11-05T23:48:23.511Z,80.49
2018-11-05T23:50:58.263Z,80.42
2018-11-05T23:53:32.204Z,80.27
2018-11-05T23:56:06.202Z,80.25
2018-11-05T23:58:41.792Z,80.62
